• Join FlightAware (Why Join?)
  • Login
  • US Flag 
09:58PM EDT


 

Airport Tracker/Info


-or-


 

Live Flight TrackerFlight Track Log ✈ EJA583 ✈ 09-Jul-2013 ✈ KHOU - KDAL

Flight Track Log - Related Links

Times and Time Zones

All times are in EDT time to prevent confusion due to time zone crossing. See the EJA583 flight status page for this flight to view local times or setup timezone preferences in your user account.

Time Position Orientation Groundspeed Altitude Reporting Facility
EDT Latitude Longitude Course Direction KTS MPH feet Rate Location/Type
12:02PM 29.6411 -95.2836 116° Southeast 153 176 700  Level Houston Center
12:03PM 29.6253 -95.2469 116° Southeast 225 259 4,300 1,740 Climbing Houston Center
12:05PM 29.7161 -95.2567 355° North 261 300 5,000 900 Climbing Houston Center
12:06PM 29.7875 -95.2858 340° North 275 316 6,500 2,220 Climbing Houston Center
12:07PM 29.8475 -95.3406 322° Northwest 275 316 9,700 2,880 Climbing Houston Center
12:08PM 29.9272 -95.3594 348° North 288 331 12,500 2,520 Climbing Houston Center
12:09PM 30.0122 -95.3758 351° North 304 350 15,000 2,460 Climbing Houston Center
12:10PM 30.1194 -95.3972 350° North 322 371 17,700 2,160 Climbing Houston Center
12:11PM 30.2136 -95.4139 351° North 338 389 19,500 1,800 Climbing Houston Center
12:12PM 30.3111 -95.4336 350° North 353 406 21,500 1,200 Climbing Houston Center
12:13PM 30.4089 -95.4525 351° North 356 410 22,000 240 Climbing Houston Center
12:14PM 30.5069 -95.4725 350° North 358 412 22,000  Level Houston Center
12:15PM 30.6003 -95.5144 339° North 357 411 22,000  Level Houston Center
12:16PM 30.7047 -95.5603 339° North 350 403 22,000  Level Houston Center
12:17PM 30.7981 -95.6014 339° North 353 406 22,000  Level Houston Center
12:18PM 30.8900 -95.6408 340° North 351 404 22,000  Level Houston Center
12:19PM 30.9831 -95.6817 339° North 354 407 22,000  Level Houston Center
12:20PM 31.0931 -95.7300 339° North 351 404 22,000  Level Houston Center
12:21PM 31.1844 -95.7706 339° North 350 403 22,000  Level Houston Center
12:22PM 31.2772 -95.8103 340° North 352 405 22,000  Level Houston Center
12:23PM 31.3747 -95.8544 339° North 368 423 22,000  Level Houston Center
12:24PM 31.4778 -95.9050 337° Northwest 388 447 22,000  Level Houston Center
12:25PM 31.5869 -95.9556 338° Northwest 409 471 22,000  Level Houston Center
12:26PM 31.7150 -96.0175 338° Northwest 412 474 22,000 -120 Level Houston Center
12:27PM 31.8208 -96.0683 338° Northwest 411 473 21,800 -1,200 Descending Houston Center
12:28PM 31.9264 -96.1194 338° Northwest 414 476 19,600 -2,100 Descending Houston Center
12:29PM 32.0303 -96.1700 338° Northwest 406 467 17,500 -2,040 Descending Houston Center
12:30PM 32.1303 -96.2181 338° Northwest 390 449 15,400 -2,160 Descending Houston Center
12:31PM 32.2333 -96.2667 338° Northwest 381 438 13,300 -2,040 Descending Dallas / Fort Worth TRACON
12:32PM 32.3297 -96.3192 335° Northwest 374 430 11,400 -1,920 Descending Fort Worth Center
12:33PM 32.4156 -96.3625 337° Northwest 348 400 9,400 -1,620 Descending Fort Worth Center
12:34PM 32.4933 -96.4036 336° Northwest 311 358 8,300 -1,380 Descending Fort Worth Center
12:35PM 32.5625 -96.4447 333° Northwest 285 328 6,700 -1,500 Descending Fort Worth Center
12:36PM 32.6317 -96.4883 332° Northwest 285 328 5,300 -900 Descending Fort Worth Center
12:37PM 32.6967 -96.5369 328° Northwest 285 328 5,000 -180 Descending Fort Worth Center
12:38PM 32.7578 -96.5933 322° Northwest 279 321 5,000  Level Fort Worth Center
12:39PM 32.8206 -96.6494 323° Northwest 279 321 5,000 -540 Level Fort Worth Center
12:40PM 32.8753 -96.7083 318° Northwest 279 321 4,000 -540 Descending Fort Worth Center
12:41PM 32.9194 -96.7700 310° West 268 308 4,000  Level Fort Worth Center
12:42PM 32.9489 -96.8367 298° West 232 267 4,000 -540 Level Fort Worth Center
12:43PM 32.9492 -96.8911 270° West 165 190 3,000 -1,200 Descending Fort Worth Center
12:44PM 32.8992 -96.9036 192° South 135 155 1,700 -1,080 Descending Fort Worth Center
12:45PM 32.8697 -96.8742 140° Southeast 107 123 900 -840 Descending Fort Worth Center
12:47PM 32.8471 -96.8518 207° Southwest  Level Estimated
12:54PM 32.8471 -96.8518 207° Southwest  Level Estimated